Pollock, Idaho
Current Conditions -  °F | °C
As of 4:51 AM on Friday 19 Dec 2014 (Local Time) from KMYL Reporting Station
Overcast Overcast  
Wind Chill: 32°   Ceiling: 1500
Heat Index: 32°   Visibility: 10mi
Dew Point: 31°   Wind: 3mph
Humidity: 96%   Direction: 120°ESE
Pressure: 30"   Gusts: NA
Location:  45.31°N, 116.36°W
Report Text: KMYL 191151Z AUTO 12003KT 10SM FEW004 OVC015 00/M01 A3000 RMK AO2 SNE10 SLP178 P0000 60005 70007 T00001006 10006 20000 58005
Loading
Personal Weather Stations






























Interactive Weather Map New forecast layout! Learn more

10-Day Weather Forecast

Advertisements
Track Severe Weather on mobile